createdAt,value
2019-02-18T00:00:31.290Z,2.20
2019-02-18T00:02:59.868Z,2.10
2019-02-18T00:05:28.455Z,2.10
2019-02-18T00:07:57.025Z,2.10
2019-02-18T00:10:25.680Z,2.10
2019-02-18T00:12:54.325Z,2.10
2019-02-18T00:15:23.146Z,2.10
2019-02-18T00:17:51.787Z,2.10
2019-02-18T00:20:20.361Z,2.10
2019-02-18T00:22:48.942Z,2.10
2019-02-18T00:25:17.670Z,2.10
2019-02-18T00:27:46.263Z,2.10
2019-02-18T00:30:14.907Z,2.10
2019-02-18T00:32:43.559Z,2.20
2019-02-18T00:35:12.134Z,2.20
2019-02-18T00:37:41.264Z,2.20
2019-02-18T00:40:10.578Z,2.30
2019-02-18T00:42:39.159Z,2.30
2019-02-18T00:45:12.779Z,2.30
2019-02-18T00:47:41.356Z,2.40
2019-02-18T00:50:10.978Z,2.40
2019-02-18T00:52:39.559Z,2.40
2019-02-18T00:55:09.182Z,2.40
2019-02-18T00:57:37.823Z,2.50
2019-02-18T01:00:12.478Z,2.50
2019-02-18T01:02:41.050Z,2.60
2019-02-18T01:05:10.083Z,2.60
2019-02-18T01:07:38.800Z,2.60
2019-02-18T01:10:12.168Z,2.60
2019-02-18T01:12:40.802Z,2.70
2019-02-18T01:15:14.251Z,2.70
2019-02-18T01:17:42.932Z,2.70
2019-02-18T01:20:13.446Z,2.80
2019-02-18T01:22:42.160Z,2.80
2019-02-18T01:25:12.767Z,2.90
2019-02-18T01:27:41.477Z,2.90
2019-02-18T01:30:12.978Z,2.90
2019-02-18T01:32:41.643Z,3.00
2019-02-18T01:35:10.454Z,3.00
2019-02-18T01:37:45.754Z,3.10
2019-02-18T01:40:11.684Z,3.10
2019-02-18T01:42:40.426Z,3.10
2019-02-18T01:45:11.450Z,3.10
2019-02-18T01:47:40.186Z,3.10
2019-02-18T01:50:15.630Z,3.20
2019-02-18T01:52:44.202Z,3.20
2019-02-18T01:55:13.821Z,3.20
2019-02-18T01:57:42.539Z,3.20
2019-02-18T02:00:13.830Z,3.30
2019-02-18T02:02:42.541Z,3.30
2019-02-18T02:05:12.634Z,3.40
2019-02-18T02:07:41.349Z,3.40
2019-02-18T02:10:12.341Z,3.40
2019-02-18T02:12:41.058Z,3.40
2019-02-18T02:15:12.731Z,3.40
2019-02-18T02:17:41.302Z,3.40
2019-02-18T02:20:09.957Z,3.40
2019-02-18T02:22:38.610Z,3.50
2019-02-18T02:25:07.404Z,3.50
2019-02-18T02:27:35.992Z,3.50
2019-02-18T02:30:06.547Z,3.50
2019-02-18T02:32:35.086Z,3.60
2019-02-18T02:35:03.903Z,3.60
2019-02-18T02:37:32.497Z,3.60
2019-02-18T02:40:01.154Z,3.60
2019-02-18T02:42:29.794Z,3.60
2019-02-18T02:44:58.430Z,3.70
2019-02-18T02:47:27.047Z,3.70
2019-02-18T02:49:55.600Z,3.70
2019-02-18T02:52:24.209Z,3.70
2019-02-18T02:54:52.770Z,3.70
2019-02-18T02:57:21.328Z,3.70
2019-02-18T02:59:49.911Z,3.70
2019-02-18T03:02:18.488Z,3.70
2019-02-18T03:04:47.063Z,3.70
2019-02-18T03:07:15.714Z,3.70
2019-02-18T03:09:44.294Z,3.70
2019-02-18T03:12:12.951Z,3.70
2019-02-18T03:14:41.530Z,3.70
2019-02-18T03:17:10.182Z,3.70
2019-02-18T03:19:38.754Z,3.70
2019-02-18T03:22:07.610Z,3.70
2019-02-18T03:24:36.222Z,3.70
2019-02-18T03:27:07.464Z,3.70
2019-02-18T03:29:47.934Z,3.80
2019-02-18T03:32:16.538Z,3.80
2019-02-18T03:34:45.210Z,3.80
2019-02-18T03:37:13.766Z,3.80
2019-02-18T03:39:42.357Z,3.90
2019-02-18T03:42:10.998Z,3.80
2019-02-18T03:44:39.618Z,3.90
2019-02-18T03:47:08.259Z,3.90
2019-02-18T03:49:36.835Z,3.90
2019-02-18T03:52:05.468Z,3.90
2019-02-18T03:54:34.116Z,3.90
2019-02-18T03:57:02.767Z,3.90
2019-02-18T03:59:31.346Z,3.90
2019-02-18T04:01:59.998Z,3.80
2019-02-18T04:04:28.688Z,3.80
2019-02-18T04:06:57.267Z,3.90
2019-02-18T04:09:25.834Z,3.90
2019-02-18T04:11:54.409Z,3.90
2019-02-18T04:14:23.072Z,3.90
2019-02-18T04:16:51.632Z,3.90
2019-02-18T04:19:20.211Z,4.00
2019-02-18T04:21:48.785Z,4.00
2019-02-18T04:24:17.367Z,4.00
2019-02-18T04:26:45.934Z,4.00
2019-02-18T04:29:14.545Z,4.00
2019-02-18T04:31:43.190Z,4.00
2019-02-18T04:34:11.853Z,4.00
2019-02-18T04:36:40.505Z,4.00
2019-02-18T04:39:09.071Z,4.10
2019-02-18T04:41:37.654Z,4.10
2019-02-18T04:44:06.222Z,4.10
2019-02-18T04:46:34.822Z,4.10
2019-02-18T04:49:03.387Z,4.10
2019-02-18T04:51:31.974Z,4.10
2019-02-18T04:54:00.559Z,4.20
2019-02-18T04:56:29.129Z,4.20
2019-02-18T04:58:57.764Z,4.20
2019-02-18T05:01:26.330Z,4.20
2019-02-18T05:03:54.913Z,4.20
2019-02-18T05:06:25.457Z,4.20
2019-02-18T05:09:04.650Z,4.20
2019-02-18T05:11:23.918Z,4.30
2019-02-18T05:13:52.530Z,4.30
2019-02-18T05:16:21.101Z,4.40
2019-02-18T05:18:49.673Z,4.40
2019-02-18T05:21:18.253Z,4.40
2019-02-18T05:23:46.824Z,4.40
2019-02-18T05:26:15.428Z,4.40
2019-02-18T05:28:43.966Z,4.50
2019-02-18T05:31:12.546Z,4.50
2019-02-18T05:33:41.117Z,4.50
2019-02-18T05:36:09.705Z,4.50
2019-02-18T05:38:38.325Z,4.50
2019-02-18T05:41:06.907Z,4.50
2019-02-18T05:43:35.498Z,4.50
2019-02-18T05:46:04.070Z,4.50
2019-02-18T05:48:34.076Z,4.50
2019-02-18T05:51:02.922Z,4.50
2019-02-18T05:53:31.504Z,4.50
2019-02-18T05:56:00.079Z,4.50
2019-02-18T05:58:28.650Z,4.50
2019-02-18T06:00:57.224Z,4.50
2019-02-18T06:03:25.794Z,4.60
2019-02-18T06:05:54.379Z,4.70
2019-02-18T06:08:22.941Z,4.70
2019-02-18T06:10:51.520Z,4.80
2019-02-18T06:13:20.199Z,4.80
2019-02-18T06:15:48.819Z,4.80
2019-02-18T06:18:17.386Z,4.90
2019-02-18T06:20:45.993Z,4.90
2019-02-18T06:23:14.659Z,4.90
2019-02-18T06:25:43.223Z,5.00
2019-02-18T06:28:11.802Z,5.00
2019-02-18T06:30:40.390Z,5.00
2019-02-18T06:33:09.043Z,5.10
2019-02-18T06:35:37.701Z,5.10
2019-02-18T06:38:06.278Z,5.10
2019-02-18T06:40:34.919Z,5.10
2019-02-18T06:43:03.565Z,5.20
2019-02-18T06:45:36.626Z,5.20
2019-02-18T06:48:09.726Z,5.30
2019-02-18T06:50:38.306Z,5.40
2019-02-18T06:53:06.878Z,5.40
2019-02-18T06:55:35.462Z,5.40
2019-02-18T06:58:08.801Z,5.50
2019-02-18T07:00:41.507Z,5.50
2019-02-18T07:03:30.084Z,5.50
2019-02-18T07:06:00.301Z,5.60
2019-02-18T07:08:46.865Z,5.60
2019-02-18T07:11:17.026Z,5.60
2019-02-18T07:13:45.677Z,5.60
2019-02-18T07:16:14.260Z,5.60
2019-02-18T07:18:42.829Z,5.60
2019-02-18T07:21:11.410Z,5.60
2019-02-18T07:23:39.982Z,5.70
2019-02-18T07:26:08.763Z,5.70
2019-02-18T07:28:37.335Z,5.80
2019-02-18T07:31:05.982Z,5.90
2019-02-18T07:33:34.567Z,5.90
2019-02-18T07:36:03.215Z,6.10
2019-02-18T07:38:31.795Z,6.10
2019-02-18T07:41:00.362Z,6.20
2019-02-18T07:43:28.946Z,6.20
2019-02-18T07:45:57.542Z,6.20
2019-02-18T07:48:26.258Z,6.40
2019-02-18T07:50:54.834Z,6.50
2019-02-18T07:53:23.515Z,6.40
2019-02-18T07:55:52.093Z,6.50
2019-02-18T07:58:20.666Z,6.60
2019-02-18T08:00:49.248Z,6.80
2019-02-18T08:03:17.890Z,7.30
2019-02-18T08:05:46.477Z,7.60
2019-02-18T08:08:15.046Z,7.90
2019-02-18T08:10:43.639Z,8.10
2019-02-18T08:13:12.290Z,8.40
2019-02-18T08:15:40.870Z,8.50
2019-02-18T08:18:09.451Z,8.30
2019-02-18T08:20:38.096Z,8.20
2019-02-18T08:23:06.750Z,8.20
2019-02-18T08:25:35.395Z,8.40
2019-02-18T08:28:03.978Z,8.40
2019-02-18T08:30:32.638Z,8.80
2019-02-18T08:33:01.230Z,8.90
2019-02-18T08:35:29.822Z,8.90
2019-02-18T08:37:58.395Z,9.20
2019-02-18T08:40:26.977Z,9.50
2019-02-18T08:42:55.549Z,9.00
2019-02-18T08:45:24.131Z,9.10
2019-02-18T08:47:52.738Z,9.40
2019-02-18T08:50:21.310Z,9.70
2019-02-18T08:52:49.940Z,10.00
2019-02-18T08:55:18.527Z,10.00
2019-02-18T08:57:47.098Z,9.70
2019-02-18T09:00:17.229Z,9.70
2019-02-18T09:02:45.891Z,10.00
2019-02-18T09:05:14.591Z,10.50
2019-02-18T09:07:43.303Z,11.10
2019-02-18T09:10:14.380Z,11.20
2019-02-18T09:12:42.966Z,10.80
2019-02-18T09:15:14.147Z,10.80
2019-02-18T09:17:42.187Z,10.60
2019-02-18T09:20:10.999Z,10.90
2019-02-18T09:22:57.698Z,10.90
2019-02-18T09:25:30.642Z,11.20
2019-02-18T09:27:59.215Z,10.60
2019-02-18T09:30:29.510Z,10.50
2019-02-18T09:32:58.089Z,10.50
2019-02-18T09:35:26.746Z,10.90
2019-02-18T09:37:55.423Z,10.60
2019-02-18T09:40:23.979Z,10.20
2019-02-18T09:42:52.554Z,10.00
2019-02-18T09:45:21.221Z,10.20
2019-02-18T09:47:49.875Z,10.20
2019-02-18T09:50:18.446Z,9.70
2019-02-18T09:52:47.030Z,9.60
2019-02-18T09:55:15.659Z,9.50
2019-02-18T09:57:44.247Z,9.60
2019-02-18T10:00:13.252Z,9.60
2019-02-18T10:02:41.906Z,9.70
2019-02-18T10:05:10.718Z,9.30
2019-02-18T10:07:39.311Z,9.10
2019-02-18T10:10:10.402Z,9.10
2019-02-18T10:12:39.154Z,9.60
2019-02-18T10:15:11.774Z,9.50
2019-02-18T10:17:40.482Z,9.50
2019-02-18T10:20:11.104Z,9.60
2019-02-18T10:22:39.738Z,9.50
2019-02-18T10:25:13.286Z,9.50
2019-02-18T10:27:41.925Z,9.40
2019-02-18T10:30:12.434Z,10.00
2019-02-18T10:32:41.082Z,10.50
2019-02-18T10:35:14.262Z,10.40
2019-02-18T10:37:42.915Z,10.50
2019-02-18T10:40:11.651Z,10.40
2019-02-18T10:42:40.325Z,10.40
2019-02-18T10:45:11.589Z,10.20
2019-02-18T10:47:40.185Z,10.30
2019-02-18T10:50:10.596Z,10.50
2019-02-18T10:52:39.247Z,10.50
2019-02-18T10:55:11.765Z,10.60
2019-02-18T10:57:40.567Z,10.80
2019-02-18T11:00:18.390Z,10.90
2019-02-18T11:02:46.989Z,10.70
2019-02-18T11:05:15.574Z,10.80
2019-02-18T11:07:44.152Z,11.00
2019-02-18T11:10:15.242Z,10.70
2019-02-18T11:12:43.892Z,10.70
2019-02-18T11:15:15.798Z,10.80
2019-02-18T11:17:44.774Z,10.90
2019-02-18T11:20:14.298Z,11.20
2019-02-18T11:22:42.875Z,11.30
2019-02-18T11:25:12.981Z,11.00
2019-02-18T11:27:41.622Z,11.40
2019-02-18T11:30:16.094Z,11.20
2019-02-18T11:32:44.734Z,11.00
2019-02-18T11:35:13.452Z,11.10
2019-02-18T11:37:42.206Z,11.30
2019-02-18T11:40:17.892Z,11.20
2019-02-18T11:42:46.606Z,11.20
2019-02-18T11:45:16.436Z,11.40
2019-02-18T11:47:45.200Z,11.70
2019-02-18T11:50:14.915Z,11.60
2019-02-18T11:52:43.563Z,11.40
2019-02-18T11:55:15.183Z,11.60
2019-02-18T11:57:44.225Z,11.60
2019-02-18T12:00:16.514Z,11.50
2019-02-18T12:02:45.106Z,11.40
2019-02-18T12:05:14.059Z,11.10
2019-02-18T12:07:42.869Z,11.30
2019-02-18T12:10:12.987Z,11.40
2019-02-18T12:12:41.938Z,11.60
2019-02-18T12:15:15.026Z,11.80
2019-02-18T12:17:44.322Z,11.90
2019-02-18T12:20:16.534Z,11.90
2019-02-18T12:22:45.123Z,12.00
2019-02-18T12:25:14.038Z,11.80
2019-02-18T12:27:43.031Z,11.80
2019-02-18T12:30:13.853Z,11.70
2019-02-18T12:32:42.575Z,11.80
2019-02-18T12:35:11.495Z,12.40
2019-02-18T12:37:40.091Z,12.40
2019-02-18T12:40:13.406Z,12.30
2019-02-18T12:42:42.630Z,11.90
2019-02-18T12:45:13.285Z,12.20
2019-02-18T12:47:42.246Z,12.30
2019-02-18T12:50:12.070Z,12.10
2019-02-18T12:52:40.732Z,12.20
2019-02-18T12:55:10.507Z,12.10
2019-02-18T12:57:39.388Z,11.90
2019-02-18T13:00:11.793Z,11.90
2019-02-18T13:02:44.119Z,11.70
2019-02-18T13:05:11.682Z,11.80
2019-02-18T13:07:40.261Z,11.70
2019-02-18T13:10:09.938Z,11.60
2019-02-18T13:12:38.522Z,11.50
2019-02-18T13:15:18.061Z,11.50
2019-02-18T13:17:46.646Z,11.50
2019-02-18T13:20:15.226Z,11.60
2019-02-18T13:22:44.738Z,11.60
2019-02-18T13:25:13.653Z,11.70
2019-02-18T13:27:42.243Z,11.80
2019-02-18T13:30:19.186Z,11.70
2019-02-18T13:32:47.785Z,11.70
2019-02-18T13:35:16.496Z,11.60
2019-02-18T13:37:45.132Z,11.60
2019-02-18T13:40:15.946Z,11.80
2019-02-18T13:42:44.897Z,11.60
2019-02-18T13:45:13.826Z,11.50
2019-02-18T13:47:42.543Z,11.50
2019-02-18T13:50:12.473Z,11.60
2019-02-18T13:52:41.225Z,11.70
2019-02-18T13:55:11.690Z,11.80
2019-02-18T13:57:40.703Z,11.90
2019-02-18T14:00:16.858Z,11.70
2019-02-18T14:02:45.607Z,11.70
2019-02-18T14:05:14.519Z,11.70
2019-02-18T14:07:43.107Z,11.70
2019-02-18T14:10:11.922Z,11.60
2019-02-18T14:12:40.650Z,11.70
2019-02-18T14:15:11.470Z,11.70
2019-02-18T14:17:40.189Z,11.70
2019-02-18T14:20:14.151Z,11.70
2019-02-18T14:22:43.169Z,11.60
2019-02-18T14:25:12.277Z,11.50
2019-02-18T14:27:40.855Z,11.50
2019-02-18T14:30:14.910Z,11.40
2019-02-18T14:32:43.755Z,11.20
2019-02-18T14:35:12.781Z,11.10
2019-02-18T14:37:41.356Z,11.00
2019-02-18T14:40:12.117Z,10.90
2019-02-18T14:42:40.833Z,10.70
2019-02-18T14:45:10.566Z,10.70
2019-02-18T14:47:39.790Z,10.80
2019-02-18T14:50:10.078Z,10.70
2019-02-18T14:52:38.736Z,10.70
2019-02-18T14:55:09.045Z,10.60
2019-02-18T14:57:37.695Z,10.60
2019-02-18T15:00:16.378Z,10.30
2019-02-18T15:02:44.977Z,10.30
2019-02-18T15:05:13.697Z,10.30
2019-02-18T15:07:42.585Z,10.20
2019-02-18T15:10:11.406Z,10.10
2019-02-18T15:12:40.076Z,10.10
2019-02-18T15:15:09.102Z,10.00
2019-02-18T15:17:37.674Z,9.90
2019-02-18T15:20:07.994Z,9.70
2019-02-18T15:22:36.871Z,9.70
2019-02-18T15:25:08.190Z,9.60
2019-02-18T15:27:36.831Z,9.50
2019-02-18T15:30:11.386Z,9.50
2019-02-18T15:32:40.098Z,9.40
2019-02-18T15:35:08.930Z,9.50
2019-02-18T15:37:37.657Z,9.50
2019-02-18T15:40:09.339Z,9.60
2019-02-18T15:42:42.389Z,9.60
2019-02-18T15:45:09.223Z,9.40
2019-02-18T15:47:38.011Z,9.30
2019-02-18T15:50:10.069Z,9.20
2019-02-18T15:52:38.722Z,9.10
2019-02-18T15:55:08.436Z,9.00
2019-02-18T15:57:37.086Z,9.00
2019-02-18T16:00:20.069Z,8.90
2019-02-18T16:02:48.994Z,8.80
2019-02-18T16:05:17.631Z,8.70
2019-02-18T16:07:46.280Z,8.60
2019-02-18T16:10:14.868Z,8.40
2019-02-18T16:12:50.552Z,8.30
2019-02-18T16:15:13.822Z,8.20
2019-02-18T16:17:42.867Z,8.20
2019-02-18T16:20:13.191Z,8.10
2019-02-18T16:22:41.830Z,8.00
2019-02-18T16:25:15.881Z,8.00
2019-02-18T16:27:44.471Z,7.90
2019-02-18T16:30:14.877Z,7.80
2019-02-18T16:32:43.854Z,7.80
2019-02-18T16:35:12.886Z,7.70
2019-02-18T16:37:41.974Z,7.70
2019-02-18T16:40:18.019Z,7.70
2019-02-18T16:42:46.839Z,7.60
2019-02-18T16:45:15.748Z,7.50
2019-02-18T16:47:44.471Z,7.50
2019-02-18T16:50:13.454Z,7.40
2019-02-18T16:52:42.093Z,7.40
2019-02-18T16:55:12.906Z,7.40
2019-02-18T16:57:41.681Z,7.30
2019-02-18T17:00:18.290Z,7.20
2019-02-18T17:02:46.862Z,7.10
2019-02-18T17:05:15.512Z,7.10
2019-02-18T17:07:44.151Z,7.10
2019-02-18T17:10:12.874Z,7.10
2019-02-18T17:12:41.497Z,7.00
2019-02-18T17:15:12.239Z,6.90
2019-02-18T17:17:41.655Z,6.90
2019-02-18T17:20:10.401Z,6.90
2019-02-18T17:22:39.046Z,6.90
2019-02-18T17:25:10.157Z,6.90
2019-02-18T17:27:38.810Z,6.70
2019-02-18T17:30:10.998Z,6.70
2019-02-18T17:32:39.586Z,6.80
2019-02-18T17:35:12.037Z,6.70
2019-02-18T17:37:40.820Z,6.60
2019-02-18T17:40:11.526Z,6.50
2019-02-18T17:42:40.762Z,6.50
2019-02-18T17:45:11.674Z,6.50
2019-02-18T17:47:40.249Z,6.40
2019-02-18T17:50:11.585Z,6.30
2019-02-18T17:52:40.230Z,6.40
2019-02-18T17:55:13.885Z,6.60
2019-02-18T17:57:42.835Z,6.60
2019-02-18T18:00:14.242Z,6.50
2019-02-18T18:02:42.954Z,6.40
2019-02-18T18:05:11.846Z,6.30
2019-02-18T18:07:40.418Z,6.20
2019-02-18T18:10:13.350Z,6.40
2019-02-18T18:12:42.002Z,6.40
2019-02-18T18:15:13.185Z,6.30
2019-02-18T18:17:41.874Z,6.40
2019-02-18T18:20:12.093Z,6.30
2019-02-18T18:22:41.010Z,6.30
2019-02-18T18:25:12.498Z,6.20
2019-02-18T18:27:41.150Z,6.10
2019-02-18T18:30:15.433Z,6.00
2019-02-18T18:32:45.278Z,6.00
2019-02-18T18:35:14.246Z,6.00
2019-02-18T18:37:42.927Z,5.90
2019-02-18T18:40:19.045Z,6.00
2019-02-18T18:42:47.789Z,5.90
2019-02-18T18:45:17.608Z,5.90
2019-02-18T18:47:46.325Z,5.90
2019-02-18T18:50:17.042Z,5.80
2019-02-18T18:52:46.056Z,5.80
2019-02-18T18:55:14.855Z,5.70
2019-02-18T18:57:43.448Z,5.80
2019-02-18T19:00:15.420Z,5.70
2019-02-18T19:02:44.074Z,5.60
2019-02-18T19:05:12.882Z,5.60
2019-02-18T19:07:41.470Z,5.60
2019-02-18T19:10:10.578Z,5.60
2019-02-18T19:12:39.242Z,5.60
2019-02-18T19:15:16.014Z,5.70
2019-02-18T19:17:44.838Z,5.70
2019-02-18T19:20:13.997Z,5.60
2019-02-18T19:22:42.839Z,5.50
2019-02-18T19:25:12.150Z,5.50
2019-02-18T19:27:40.722Z,5.40
2019-02-18T19:30:15.190Z,5.40
2019-02-18T19:32:43.762Z,5.40
2019-02-18T19:35:12.435Z,5.50
2019-02-18T19:37:41.090Z,5.50
2019-02-18T19:40:14.013Z,5.50
2019-02-18T19:42:42.650Z,5.40
2019-02-18T19:45:16.845Z,5.50
2019-02-18T19:47:45.562Z,5.50
2019-02-18T19:50:14.300Z,5.50
2019-02-18T19:52:42.883Z,5.60
2019-02-18T19:55:12.699Z,5.60
2019-02-18T19:57:41.286Z,5.70
2019-02-18T20:00:20.176Z,5.80
2019-02-18T20:02:49.118Z,5.90
2019-02-18T20:05:17.825Z,6.00
2019-02-18T20:07:46.680Z,6.00
2019-02-18T20:10:15.663Z,6.00
2019-02-18T20:12:44.392Z,6.10
2019-02-18T20:15:14.787Z,6.10
2019-02-18T20:17:43.446Z,6.10
2019-02-18T20:20:16.866Z,6.00
2019-02-18T20:22:45.629Z,5.90
2019-02-18T20:25:14.206Z,5.90
2019-02-18T20:27:42.849Z,6.00
2019-02-18T20:30:14.510Z,6.00
2019-02-18T20:32:43.077Z,6.10
2019-02-18T20:35:12.004Z,6.10
2019-02-18T20:37:40.716Z,6.00
2019-02-18T20:40:10.742Z,5.90
2019-02-18T20:42:39.694Z,5.90
2019-02-18T20:45:12.796Z,6.00
2019-02-18T20:47:41.441Z,5.90
2019-02-18T20:50:11.994Z,5.90
2019-02-18T20:52:40.678Z,5.90
2019-02-18T20:55:14.491Z,6.00
2019-02-18T20:57:43.243Z,6.20
2019-02-18T21:00:21.714Z,6.20
2019-02-18T21:02:50.364Z,6.30
2019-02-18T21:05:19.991Z,6.30
2019-02-18T21:07:48.574Z,6.40
2019-02-18T21:10:19.696Z,6.40
2019-02-18T21:12:48.384Z,6.40
2019-02-18T21:15:17.174Z,6.40
2019-02-18T21:17:45.814Z,6.50
2019-02-18T21:20:15.233Z,6.50
2019-02-18T21:22:44.025Z,6.50
2019-02-18T21:25:13.059Z,6.50
2019-02-18T21:27:41.698Z,6.40
2019-02-18T21:30:17.450Z,6.50
2019-02-18T21:32:46.165Z,6.40
2019-02-18T21:35:14.749Z,6.50
2019-02-18T21:37:43.777Z,6.50
2019-02-18T21:40:12.955Z,6.50
2019-02-18T21:42:42.047Z,6.50
2019-02-18T21:45:14.707Z,6.60
2019-02-18T21:47:43.353Z,6.60
2019-02-18T21:50:13.457Z,6.60
2019-02-18T21:52:42.226Z,6.60
2019-02-18T21:55:11.938Z,6.70
2019-02-18T21:57:40.650Z,6.70
2019-02-18T22:00:18.332Z,6.70
2019-02-18T22:02:47.245Z,6.80
2019-02-18T22:05:16.462Z,6.80
2019-02-18T22:07:45.107Z,6.70
2019-02-18T22:10:14.037Z,6.80
2019-02-18T22:12:42.770Z,6.70
2019-02-18T22:15:13.449Z,6.60
2019-02-18T22:17:42.157Z,6.70
2019-02-18T22:20:11.882Z,6.70
2019-02-18T22:22:40.526Z,6.60
2019-02-18T22:25:10.938Z,6.60
2019-02-18T22:27:39.590Z,6.60
2019-02-18T22:30:13.750Z,6.70
2019-02-18T22:32:42.368Z,6.60
2019-02-18T22:35:11.078Z,6.60
2019-02-18T22:37:39.732Z,6.60
2019-02-18T22:40:10.045Z,6.70
2019-02-18T22:42:38.768Z,6.80
2019-02-18T22:45:09.406Z,6.90
2019-02-18T22:47:38.098Z,6.90
2019-02-18T22:50:09.379Z,6.90
2019-02-18T22:52:37.954Z,7.00
2019-02-18T22:55:07.574Z,7.00
2019-02-18T22:57:36.155Z,7.10
2019-02-18T23:00:10.882Z,7.00
2019-02-18T23:02:42.626Z,7.00
2019-02-18T23:05:11.492Z,6.90
2019-02-18T23:07:40.053Z,7.00
2019-02-18T23:10:08.981Z,7.10
2019-02-18T23:12:37.566Z,7.10
2019-02-18T23:15:06.576Z,7.10
2019-02-18T23:17:35.157Z,7.00
2019-02-18T23:20:03.998Z,7.10
2019-02-18T23:22:32.978Z,7.00
2019-02-18T23:25:01.552Z,7.10
2019-02-18T23:27:30.283Z,7.10
2019-02-18T23:29:58.853Z,7.10
2019-02-18T23:32:27.474Z,7.20
2019-02-18T23:34:56.117Z,7.10
2019-02-18T23:37:24.693Z,7.10
2019-02-18T23:39:53.278Z,7.00
2019-02-18T23:42:21.986Z,7.00
2019-02-18T23:44:58.832Z,6.90
2019-02-18T23:47:21.029Z,6.80
2019-02-18T23:49:49.706Z,6.90
2019-02-18T23:52:18.278Z,6.90
2019-02-18T23:54:46.977Z,7.00
2019-02-18T23:57:15.550Z,7.00
2019-02-18T23:59:44.159Z,7.00
